sensor_id;sensor_type;location;lat;lon;timestamp;pressure;altitude;pressure_sealevel;temperature;humidity
41947;BME280;27638;42.184;24.848;2022-09-13T00:00:16;99457.06;;;19.51;57.06
41947;BME280;27638;42.184;24.848;2022-09-13T00:02:42;99455.97;;;19.58;56.74
41947;BME280;27638;42.184;24.848;2022-09-13T00:05:07;99460.34;;;19.71;56.60
41947;BME280;27638;42.184;24.848;2022-09-13T00:07:32;99455.19;;;19.69;56.73
41947;BME280;27638;42.184;24.848;2022-09-13T00:09:58;99459.59;;;19.64;56.59
41947;BME280;27638;42.184;24.848;2022-09-13T00:12:23;99456.75;;;19.77;56.33
41947;BME280;27638;42.184;24.848;2022-09-13T00:14:48;99460.78;;;19.68;56.67
41947;BME280;27638;42.184;24.848;2022-09-13T00:17:14;99455.22;;;19.51;57.13
41947;BME280;27638;42.184;24.848;2022-09-13T00:19:39;99451.06;;;19.55;57.06
41947;BME280;27638;42.184;24.848;2022-09-13T00:22:04;99451.66;;;19.57;56.94
41947;BME280;27638;42.184;24.848;2022-09-13T00:24:30;99452.84;;;19.43;57.13
41947;BME280;27638;42.184;24.848;2022-09-13T00:26:56;99448.66;;;19.47;56.74
41947;BME280;27638;42.184;24.848;2022-09-13T00:29:21;99443.72;;;19.44;57.15
41947;BME280;27638;42.184;24.848;2022-09-13T00:31:46;99448.88;;;19.45;56.84
41947;BME280;27638;42.184;24.848;2022-09-13T00:34:11;99439.41;;;19.43;56.86
41947;BME280;27638;42.184;24.848;2022-09-13T00:36:37;99443.09;;;19.30;57.07
41947;BME280;27638;42.184;24.848;2022-09-13T00:39:02;99447.91;;;19.40;57.13
41947;BME280;27638;42.184;24.848;2022-09-13T00:41:27;99449.25;;;19.49;56.75
41947;BME280;27638;42.184;24.848;2022-09-13T00:43:56;99445.22;;;19.40;56.68
41947;BME280;27638;42.184;24.848;2022-09-13T00:46:27;99448.50;;;19.42;56.59
41947;BME280;27638;42.184;24.848;2022-09-13T00:48:56;99451.72;;;19.32;56.86
41947;BME280;27638;42.184;24.848;2022-09-13T00:51:22;99452.47;;;19.39;56.46
41947;BME280;27638;42.184;24.848;2022-09-13T00:53:49;99447.88;;;19.10;57.25
41947;BME280;27638;42.184;24.848;2022-09-13T00:56:18;99447.25;;;19.26;57.19
41947;BME280;27638;42.184;24.848;2022-09-13T00:58:48;99440.47;;;19.24;57.08
41947;BME280;27638;42.184;24.848;2022-09-13T01:01:14;99443.16;;;19.24;57.26
41947;BME280;27638;42.184;24.848;2022-09-13T01:03:40;99452.78;;;19.13;57.58
41947;BME280;27638;42.184;24.848;2022-09-13T01:06:10;99446.22;;;19.09;57.59
41947;BME280;27638;42.184;24.848;2022-09-13T01:08:36;99446.53;;;19.19;57.61
41947;BME280;27638;42.184;24.848;2022-09-13T01:11:02;99440.94;;;19.02;58.08
41947;BME280;27638;42.184;24.848;2022-09-13T01:13:31;99439.97;;;18.97;58.51
41947;BME280;27638;42.184;24.848;2022-09-13T01:15:57;99440.56;;;18.99;58.54
41947;BME280;27638;42.184;24.848;2022-09-13T01:18:23;99444.59;;;18.90;58.88
41947;BME280;27638;42.184;24.848;2022-09-13T01:30:57;99445.13;;;18.80;59.77
41947;BME280;27638;42.184;24.848;2022-09-13T01:33:32;99432.97;;;18.96;58.97
41947;BME280;27638;42.184;24.848;2022-09-13T01:36:06;99445.63;;;18.89;59.45
41947;BME280;27638;42.184;24.848;2022-09-13T01:46:12;99439.59;;;18.93;59.50
41947;BME280;27638;42.184;24.848;2022-09-13T01:59:13;99434.84;;;18.95;58.96
41947;BME280;27638;42.184;24.848;2022-09-13T02:04:16;99434.25;;;18.93;58.95
41947;BME280;27638;42.184;24.848;2022-09-13T02:06:45;99439.38;;;18.76;59.67
41947;BME280;27638;42.184;24.848;2022-09-13T02:09:16;99429.91;;;18.74;59.88
41947;BME280;27638;42.184;24.848;2022-09-13T02:11:43;99427.75;;;18.83;59.82
41947;BME280;27638;42.184;24.848;2022-09-13T02:14:13;99427.53;;;18.59;60.47
41947;BME280;27638;42.184;24.848;2022-09-13T02:19:19;99428.16;;;18.61;60.67
41947;BME280;27638;42.184;24.848;2022-09-13T02:21:48;99432.88;;;18.59;60.52
41947;BME280;27638;42.184;24.848;2022-09-13T02:24:17;99425.88;;;18.58;60.83
41947;BME280;27638;42.184;24.848;2022-09-13T02:26:44;99432.63;;;18.67;60.41
41947;BME280;27638;42.184;24.848;2022-09-13T02:29:12;99431.03;;;18.60;60.96
41947;BME280;27638;42.184;24.848;2022-09-13T02:31:42;99434.00;;;18.76;60.18
41947;BME280;27638;42.184;24.848;2022-09-13T02:34:11;99438.22;;;18.41;61.36
41947;BME280;27638;42.184;24.848;2022-09-13T02:36:38;99441.50;;;18.18;62.55
41947;BME280;27638;42.184;24.848;2022-09-13T02:39:11;99446.75;;;18.06;62.95
41947;BME280;27638;42.184;24.848;2022-09-13T02:44:08;99446.84;;;18.43;62.38
41947;BME280;27638;42.184;24.848;2022-09-13T02:49:20;99447.53;;;18.38;61.96
41947;BME280;27638;42.184;24.848;2022-09-13T02:51:55;99442.16;;;18.13;62.37
41947;BME280;27638;42.184;24.848;2022-09-13T02:56:53;99441.28;;;18.19;62.15
41947;BME280;27638;42.184;24.848;2022-09-13T02:59:22;99452.13;;;18.31;61.45
41947;BME280;27638;42.184;24.848;2022-09-13T03:04:45;99449.31;;;18.19;61.89
41947;BME280;27638;42.184;24.848;2022-09-13T03:07:11;99450.47;;;18.30;61.46
41947;BME280;27638;42.184;24.848;2022-09-13T03:09:39;99445.00;;;18.18;61.79
41947;BME280;27638;42.184;24.848;2022-09-13T03:19:47;99453.13;;;17.80;63.00
41947;BME280;27638;42.184;24.848;2022-09-13T03:22:22;99446.69;;;17.88;62.55
41947;BME280;27638;42.184;24.848;2022-09-13T03:25:06;99452.94;;;18.07;61.91
41947;BME280;27638;42.184;24.848;2022-09-13T03:30:01;99464.69;;;18.31;61.17
41947;BME280;27638;42.184;24.848;2022-09-13T03:40:14;99462.28;;;18.23;60.74
41947;BME280;27638;42.184;24.848;2022-09-13T03:42:42;99454.75;;;18.13;61.04
41947;BME280;27638;42.184;24.848;2022-09-13T03:45:09;99455.41;;;18.08;60.77
41947;BME280;27638;42.184;24.848;2022-09-13T03:47:36;99454.00;;;17.99;61.11
41947;BME280;27638;42.184;24.848;2022-09-13T03:50:03;99458.25;;;18.13;60.25
41947;BME280;27638;42.184;24.848;2022-09-13T03:52:31;99461.56;;;18.09;60.58
41947;BME280;27638;42.184;24.848;2022-09-13T03:54:57;99459.88;;;18.14;60.38
41947;BME280;27638;42.184;24.848;2022-09-13T03:57:23;99460.59;;;18.03;60.71
41947;BME280;27638;42.184;24.848;2022-09-13T03:59:52;99454.28;;;17.91;61.61
41947;BME280;27638;42.184;24.848;2022-09-13T04:02:18;99462.28;;;17.98;61.30
41947;BME280;27638;42.184;24.848;2022-09-13T04:04:44;99460.38;;;18.05;61.55
41947;BME280;27638;42.184;24.848;2022-09-13T04:07:11;99468.41;;;18.05;61.59
41947;BME280;27638;42.184;24.848;2022-09-13T04:09:36;99463.13;;;17.92;62.26
41947;BME280;27638;42.184;24.848;2022-09-13T04:12:02;99463.78;;;17.87;62.32
41947;BME280;27638;42.184;24.848;2022-09-13T04:14:27;99465.34;;;18.01;61.71
41947;BME280;27638;42.184;24.848;2022-09-13T04:16:53;99461.31;;;18.17;61.34
41947;BME280;27638;42.184;24.848;2022-09-13T04:19:19;99468.84;;;18.27;61.23
41947;BME280;27638;42.184;24.848;2022-09-13T04:21:48;99474.59;;;18.30;61.22
41947;BME280;27638;42.184;24.848;2022-09-13T04:24:14;99474.72;;;18.42;61.14
41947;BME280;27638;42.184;24.848;2022-09-13T04:26:39;99471.38;;;18.46;61.17
41947;BME280;27638;42.184;24.848;2022-09-13T04:29:05;99467.75;;;18.59;60.57
41947;BME280;27638;42.184;24.848;2022-09-13T04:31:30;99469.94;;;18.44;61.12
41947;BME280;27638;42.184;24.848;2022-09-13T04:33:55;99479.72;;;18.57;60.39
41947;BME280;27638;42.184;24.848;2022-09-13T04:36:20;99473.38;;;18.51;60.42
41947;BME280;27638;42.184;24.848;2022-09-13T04:38:46;99481.88;;;18.48;60.47
41947;BME280;27638;42.184;24.848;2022-09-13T04:41:12;99475.09;;;18.45;60.02
41947;BME280;27638;42.184;24.848;2022-09-13T04:43:37;99473.88;;;18.41;60.44
41947;BME280;27638;42.184;24.848;2022-09-13T04:46:03;99480.78;;;18.56;59.83
41947;BME280;27638;42.184;24.848;2022-09-13T04:48:28;99489.69;;;18.49;59.53
41947;BME280;27638;42.184;24.848;2022-09-13T04:50:59;99491.06;;;18.59;59.51
41947;BME280;27638;42.184;24.848;2022-09-13T04:53:24;99489.22;;;18.84;58.34
41947;BME280;27638;42.184;24.848;2022-09-13T04:55:50;99486.94;;;18.88;57.72
41947;BME280;27638;42.184;24.848;2022-09-13T04:58:15;99485.38;;;18.98;57.70
41947;BME280;27638;42.184;24.848;2022-09-13T05:00:40;99482.75;;;18.92;58.20
41947;BME280;27638;42.184;24.848;2022-09-13T05:03:06;99486.03;;;18.94;58.35
41947;BME280;27638;42.184;24.848;2022-09-13T05:05:31;99484.78;;;18.96;58.09
41947;BME280;27638;42.184;24.848;2022-09-13T05:07:56;99490.50;;;19.00;58.11
41947;BME280;27638;42.184;24.848;2022-09-13T05:10:22;99488.72;;;19.12;58.12
41947;BME280;27638;42.184;24.848;2022-09-13T05:12:47;99489.16;;;19.09;58.06
41947;BME280;27638;42.184;24.848;2022-09-13T05:15:13;99482.16;;;19.08;58.28
41947;BME280;27638;42.184;24.848;2022-09-13T05:17:38;99486.78;;;19.19;58.40
41947;BME280;27638;42.184;24.848;2022-09-13T05:20:03;99484.91;;;19.38;57.57
41947;BME280;27638;42.184;24.848;2022-09-13T05:22:30;99488.91;;;19.84;56.37
41947;BME280;27638;42.184;24.848;2022-09-13T05:24:55;99487.56;;;20.04;55.98
41947;BME280;27638;42.184;24.848;2022-09-13T05:27:20;99496.09;;;20.55;54.87
41947;BME280;27638;42.184;24.848;2022-09-13T05:29:46;99498.47;;;20.75;53.89
41947;BME280;27638;42.184;24.848;2022-09-13T05:32:11;99491.78;;;20.65;53.81
41947;BME280;27638;42.184;24.848;2022-09-13T05:34:36;99483.13;;;20.75;53.26
41947;BME280;27638;42.184;24.848;2022-09-13T05:37:01;99488.50;;;20.63;52.70
41947;BME280;27638;42.184;24.848;2022-09-13T05:39:27;99504.31;;;20.60;52.03
41947;BME280;27638;42.184;24.848;2022-09-13T05:41:52;99496.13;;;20.66;52.55
41947;BME280;27638;42.184;24.848;2022-09-13T05:44:17;99493.91;;;20.87;52.57
41947;BME280;27638;42.184;24.848;2022-09-13T05:46:45;99490.16;;;20.99;51.50
41947;BME280;27638;42.184;24.848;2022-09-13T05:49:10;99480.06;;;21.30;51.08
41947;BME280;27638;42.184;24.848;2022-09-13T05:51:36;99480.03;;;21.42;50.49
41947;BME280;27638;42.184;24.848;2022-09-13T05:54:01;99479.56;;;21.45;50.53
41947;BME280;27638;42.184;24.848;2022-09-13T05:56:27;99483.91;;;21.74;50.05
41947;BME280;27638;42.184;24.848;2022-09-13T05:58:53;99481.94;;;21.98;49.67
41947;BME280;27638;42.184;24.848;2022-09-13T06:01:20;99472.50;;;22.12;48.64
41947;BME280;27638;42.184;24.848;2022-09-13T06:03:49;99479.63;;;22.18;48.19
41947;BME280;27638;42.184;24.848;2022-09-13T06:06:15;99478.66;;;22.41;48.42
41947;BME280;27638;42.184;24.848;2022-09-13T06:08:41;99484.13;;;22.63;47.28
41947;BME280;27638;42.184;24.848;2022-09-13T06:11:07;99485.25;;;22.67;47.14
41947;BME280;27638;42.184;24.848;2022-09-13T06:13:33;99480.03;;;22.27;48.51
41947;BME280;27638;42.184;24.848;2022-09-13T06:15:59;99483.97;;;22.53;48.12
41947;BME280;27638;42.184;24.848;2022-09-13T06:18:25;99487.28;;;22.77;47.64
41947;BME280;27638;42.184;24.848;2022-09-13T06:20:50;99488.53;;;23.03;46.75
41947;BME280;27638;42.184;24.848;2022-09-13T06:23:21;99491.88;;;23.10;46.66
41947;BME280;27638;42.184;24.848;2022-09-13T06:25:46;99482.56;;;23.01;46.71
41947;BME280;27638;42.184;24.848;2022-09-13T06:28:11;99488.72;;;23.40;46.18
41947;BME280;27638;42.184;24.848;2022-09-13T06:30:37;99481.63;;;23.34;45.34
41947;BME280;27638;42.184;24.848;2022-09-13T06:33:02;99484.09;;;23.13;45.64
41947;BME280;27638;42.184;24.848;2022-09-13T06:35:28;99491.56;;;23.28;45.93
41947;BME280;27638;42.184;24.848;2022-09-13T06:37:54;99492.31;;;23.67;45.35
41947;BME280;27638;42.184;24.848;2022-09-13T06:40:20;99499.84;;;23.87;44.72
41947;BME280;27638;42.184;24.848;2022-09-13T06:42:46;99502.59;;;24.19;44.12
41947;BME280;27638;42.184;24.848;2022-09-13T06:45:12;99496.03;;;24.37;43.12
41947;BME280;27638;42.184;24.848;2022-09-13T06:47:37;99495.34;;;24.25;42.62
41947;BME280;27638;42.184;24.848;2022-09-13T06:50:02;99499.34;;;24.17;43.05
41947;BME280;27638;42.184;24.848;2022-09-13T06:52:28;99505.16;;;24.04;43.44
41947;BME280;27638;42.184;24.848;2022-09-13T06:54:53;99501.03;;;24.23;43.19
41947;BME280;27638;42.184;24.848;2022-09-13T06:57:18;99502.78;;;24.34;42.34
41947;BME280;27638;42.184;24.848;2022-09-13T06:59:44;99502.00;;;24.76;41.41
41947;BME280;27638;42.184;24.848;2022-09-13T07:02:09;99504.88;;;24.59;41.21
41947;BME280;27638;42.184;24.848;2022-09-13T07:04:34;99498.38;;;24.60;41.36
41947;BME280;27638;42.184;24.848;2022-09-13T07:07:00;99509.78;;;24.30;42.40
41947;BME280;27638;42.184;24.848;2022-09-13T07:09:25;99511.06;;;24.97;41.40
41947;BME280;27638;42.184;24.848;2022-09-13T07:11:51;99511.16;;;25.02;40.97
41947;BME280;27638;42.184;24.848;2022-09-13T07:14:21;99511.47;;;25.05;40.11
41947;BME280;27638;42.184;24.848;2022-09-13T07:16:46;99512.88;;;25.18;40.06
41947;BME280;27638;42.184;24.848;2022-09-13T07:19:16;99512.38;;;25.26;39.87
41947;BME280;27638;42.184;24.848;2022-09-13T07:21:42;99519.06;;;25.66;39.03
41947;BME280;27638;42.184;24.848;2022-09-13T07:24:07;99522.50;;;25.46;39.41
41947;BME280;27638;42.184;24.848;2022-09-13T07:26:33;99520.44;;;25.68;38.51
41947;BME280;27638;42.184;24.848;2022-09-13T07:28:59;99518.81;;;25.67;39.06
41947;BME280;27638;42.184;24.848;2022-09-13T07:31:29;99511.56;;;25.93;37.93
41947;BME280;27638;42.184;24.848;2022-09-13T07:33:55;99522.19;;;26.05;38.15
41947;BME280;27638;42.184;24.848;2022-09-13T07:36:21;99522.47;;;26.24;37.21
41947;BME280;27638;42.184;24.848;2022-09-13T07:38:46;99515.69;;;26.06;36.97
41947;BME280;27638;42.184;24.848;2022-09-13T07:41:16;99511.56;;;25.93;37.33
41947;BME280;27638;42.184;24.848;2022-09-13T07:43:42;99508.94;;;26.54;36.47
41947;BME280;27638;42.184;24.848;2022-09-13T07:46:11;99512.66;;;25.97;37.25
41947;BME280;27638;42.184;24.848;2022-09-13T07:48:37;99509.34;;;25.80;37.08
41947;BME280;27638;42.184;24.848;2022-09-13T07:53:29;99516.81;;;26.51;35.91
41947;BME280;27638;42.184;24.848;2022-09-13T07:58:26;99508.34;;;26.93;36.42
41947;BME280;27638;42.184;24.848;2022-09-13T08:00:52;99500.78;;;27.05;35.13
41947;BME280;27638;42.184;24.848;2022-09-13T08:03:17;99507.56;;;26.77;35.31
41947;BME280;27638;42.184;24.848;2022-09-13T08:05:42;99504.84;;;27.13;33.58
41947;BME280;27638;42.184;24.848;2022-09-13T08:08:08;99508.66;;;26.76;33.65
41947;BME280;27638;42.184;24.848;2022-09-13T08:10:33;99506.75;;;26.66;33.34
41947;BME280;27638;42.184;24.848;2022-09-13T08:12:59;99496.13;;;26.95;32.82
41947;BME280;27638;42.184;24.848;2022-09-13T08:15:24;99502.69;;;26.69;32.50
41947;BME280;27638;42.184;24.848;2022-09-13T08:17:50;99494.00;;;26.52;32.98
41947;BME280;27638;42.184;24.848;2022-09-13T08:20:15;99498.31;;;26.93;32.07
41947;BME280;27638;42.184;24.848;2022-09-13T08:22:40;99501.63;;;26.50;32.45
41947;BME280;27638;42.184;24.848;2022-09-13T08:25:06;99501.59;;;26.75;32.10
41947;BME280;27638;42.184;24.848;2022-09-13T08:27:31;99499.16;;;26.73;31.62
41947;BME280;27638;42.184;24.848;2022-09-13T08:29:56;99499.72;;;26.45;32.31
41947;BME280;27638;42.184;24.848;2022-09-13T08:32:21;99501.34;;;26.66;32.06
41947;BME280;27638;42.184;24.848;2022-09-13T08:34:47;99496.16;;;26.80;31.65
41947;BME280;27638;42.184;24.848;2022-09-13T08:37:12;99501.88;;;26.68;31.50
41947;BME280;27638;42.184;24.848;2022-09-13T08:39:37;99503.22;;;26.86;30.98
41947;BME280;27638;42.184;24.848;2022-09-13T08:42:06;99487.41;;;27.24;31.11
41947;BME280;27638;42.184;24.848;2022-09-13T08:44:41;99486.00;;;27.37;31.47
41947;BME280;27638;42.184;24.848;2022-09-13T08:49:44;99491.59;;;27.65;30.63
41947;BME280;27638;42.184;24.848;2022-09-13T08:54:39;99490.16;;;26.93;30.69
41947;BME280;27638;42.184;24.848;2022-09-13T08:57:10;99500.44;;;27.22;30.58
41947;BME280;27638;42.184;24.848;2022-09-13T09:02:20;99488.88;;;27.55;29.37
41947;BME280;27638;42.184;24.848;2022-09-13T09:07:32;99490.16;;;26.93;30.51
41947;BME280;27638;42.184;24.848;2022-09-13T09:10:01;99482.88;;;26.38;30.91
41947;BME280;27638;42.184;24.848;2022-09-13T09:14:56;99486.63;;;26.01;32.21
41947;BME280;27638;42.184;24.848;2022-09-13T09:17:25;99492.81;;;25.87;32.18
41947;BME280;27638;42.184;24.848;2022-09-13T09:19:58;99487.38;;;25.71;33.23
41947;BME280;27638;42.184;24.848;2022-09-13T09:22:29;99497.34;;;25.61;33.18
41947;BME280;27638;42.184;24.848;2022-09-13T09:24:56;99492.78;;;25.71;32.94
41947;BME280;27638;42.184;24.848;2022-09-13T09:27:22;99499.97;;;25.40;33.49
41947;BME280;27638;42.184;24.848;2022-09-13T09:29:48;99490.13;;;25.19;34.09
41947;BME280;27638;42.184;24.848;2022-09-13T09:37:41;99496.97;;;25.32;32.32
41947;BME280;27638;42.184;24.848;2022-09-13T09:40:10;99494.53;;;25.35;32.54
41947;BME280;27638;42.184;24.848;2022-09-13T09:42:41;99485.38;;;25.46;31.95
41947;BME280;27638;42.184;24.848;2022-09-13T09:45:23;99491.09;;;25.55;32.36
41947;BME280;27638;42.184;24.848;2022-09-13T09:47:50;99491.38;;;25.59;31.96
41947;BME280;27638;42.184;24.848;2022-09-13T09:50:23;99491.97;;;25.66;31.94
41947;BME280;27638;42.184;24.848;2022-09-13T09:55:17;99497.81;;;25.42;32.70
41947;BME280;27638;42.184;24.848;2022-09-13T09:57:53;99494.97;;;25.74;32.33
41947;BME280;27638;42.184;24.848;2022-09-13T10:00:20;99489.47;;;25.59;32.24
41947;BME280;27638;42.184;24.848;2022-09-13T10:02:46;99493.63;;;25.82;32.70
41947;BME280;27638;42.184;24.848;2022-09-13T10:05:12;99487.47;;;26.07;31.84
41947;BME280;27638;42.184;24.848;2022-09-13T10:07:38;99487.19;;;26.08;33.00
41947;BME280;27638;42.184;24.848;2022-09-13T10:10:05;99484.16;;;26.00;31.79
41947;BME280;27638;42.184;24.848;2022-09-13T10:12:33;99485.56;;;26.07;32.11
41947;BME280;27638;42.184;24.848;2022-09-13T10:15:18;99471.72;;;26.29;31.10
41947;BME280;27638;42.184;24.848;2022-09-13T10:18:03;99473.09;;;26.17;30.36
41947;BME280;27638;42.184;24.848;2022-09-13T10:20:29;99464.94;;;26.32;31.11
41947;BME280;27638;42.184;24.848;2022-09-13T10:25:40;99452.97;;;26.73;30.28
41947;BME280;27638;42.184;24.848;2022-09-13T10:28:06;99450.50;;;26.97;30.14
41947;BME280;27638;42.184;24.848;2022-09-13T10:30:42;99448.31;;;26.89;30.02
41947;BME280;27638;42.184;24.848;2022-09-13T10:33:29;99443.41;;;26.91;30.02
41947;BME280;27638;42.184;24.848;2022-09-13T10:35:57;99444.53;;;26.85;29.85
41947;BME280;27638;42.184;24.848;2022-09-13T10:38:35;99429.59;;;26.83;30.15
41947;BME280;27638;42.184;24.848;2022-09-13T10:41:01;99425.22;;;26.87;30.08
41947;BME280;27638;42.184;24.848;2022-09-13T10:43:28;99437.47;;;26.79;29.75
41947;BME280;27638;42.184;24.848;2022-09-13T10:45:54;99438.03;;;26.76;29.59
41947;BME280;27638;42.184;24.848;2022-09-13T10:48:20;99433.38;;;26.92;29.10
41947;BME280;27638;42.184;24.848;2022-09-13T10:53:45;99425.47;;;26.95;28.07
41947;BME280;27638;42.184;24.848;2022-09-13T10:56:21;99412.75;;;26.86;29.10
41947;BME280;27638;42.184;24.848;2022-09-13T10:58:47;99416.28;;;26.86;28.39
41947;BME280;27638;42.184;24.848;2022-09-13T11:01:36;99418.72;;;26.83;28.03
41947;BME280;27638;42.184;24.848;2022-09-13T11:04:08;99422.78;;;26.90;29.10
41947;BME280;27638;42.184;24.848;2022-09-13T11:06:40;99415.16;;;27.08;28.32
41947;BME280;27638;42.184;24.848;2022-09-13T11:09:13;99412.44;;;27.08;27.81
41947;BME280;27638;42.184;24.848;2022-09-13T11:12:03;99409.72;;;27.08;27.68
41947;BME280;27638;42.184;24.848;2022-09-13T11:14:41;99404.44;;;27.31;28.19
41947;BME280;27638;42.184;24.848;2022-09-13T11:24:50;99399.53;;;27.39;28.05
41947;BME280;27638;42.184;24.848;2022-09-13T11:47:04;99384.81;;;26.75;28.41
41947;BME280;27638;42.184;24.848;2022-09-13T11:57:18;99377.22;;;26.62;29.67
41947;BME280;27638;42.184;24.848;2022-09-13T12:05:22;99382.41;;;26.58;28.49
41947;BME280;27638;42.184;24.848;2022-09-13T12:07:53;99376.63;;;26.80;29.43
41947;BME280;27638;42.184;24.848;2022-09-13T12:12:46;99384.88;;;26.45;29.80
41947;BME280;27638;42.184;24.848;2022-09-13T12:15:21;99375.03;;;26.74;29.87
41947;BME280;27638;42.184;24.848;2022-09-13T12:17:51;99383.19;;;26.74;29.81
41947;BME280;27638;42.184;24.848;2022-09-13T12:20:38;99386.16;;;26.78;28.70
41947;BME280;27638;42.184;24.848;2022-09-13T12:23:15;99377.19;;;26.77;29.16
41947;BME280;27638;42.184;24.848;2022-09-13T12:25:57;99378.75;;;26.93;29.05
41947;BME280;27638;42.184;24.848;2022-09-13T12:30:57;99383.22;;;26.54;29.02
41947;BME280;27638;42.184;24.848;2022-09-13T12:33:24;99384.09;;;26.34;29.59
41947;BME280;27638;42.184;24.848;2022-09-13T12:56:27;99354.22;;;26.39;28.24
41947;BME280;27638;42.184;24.848;2022-09-13T13:01:24;99366.72;;;26.35;28.05
41947;BME280;27638;42.184;24.848;2022-09-13T13:06:35;99371.00;;;26.56;27.70
41947;BME280;27638;42.184;24.848;2022-09-13T13:12:06;99361.69;;;26.83;26.48
41947;BME280;27638;42.184;24.848;2022-09-13T13:19:44;99365.84;;;26.60;26.86
41947;BME280;27638;42.184;24.848;2022-09-13T13:24:54;99361.97;;;26.81;26.25
41947;BME280;27638;42.184;24.848;2022-09-13T13:27:32;99364.47;;;26.67;26.55
41947;BME280;27638;42.184;24.848;2022-09-13T13:33:03;99366.84;;;26.79;26.80
41947;BME280;27638;42.184;24.848;2022-09-13T13:35:28;99365.53;;;26.66;27.19
41947;BME280;27638;42.184;24.848;2022-09-13T13:38:08;99364.19;;;26.64;27.30
41947;BME280;27638;42.184;24.848;2022-09-13T13:40:37;99363.56;;;26.87;26.84
41947;BME280;27638;42.184;24.848;2022-09-13T13:43:27;99366.34;;;26.72;27.54
41947;BME280;27638;42.184;24.848;2022-09-13T13:46:39;99367.75;;;26.59;27.53
41947;BME280;27638;42.184;24.848;2022-09-13T13:48:39;99375.06;;;26.59;27.33
41947;BME280;27638;42.184;24.848;2022-09-13T13:51:12;99365.59;;;26.51;27.24
41947;BME280;27638;42.184;24.848;2022-09-13T13:53:39;99383.78;;;26.30;26.88
41947;BME280;27638;42.184;24.848;2022-09-13T13:58:45;99390.84;;;26.26;27.42
41947;BME280;27638;42.184;24.848;2022-09-13T14:01:21;99384.34;;;26.48;27.47
41947;BME280;27638;42.184;24.848;2022-09-13T14:11:37;99394.91;;;25.73;29.25
41947;BME280;27638;42.184;24.848;2022-09-13T14:14:39;99395.94;;;25.62;29.79
41947;BME280;27638;42.184;24.848;2022-09-13T14:19:41;99404.94;;;25.93;29.53
41947;BME280;27638;42.184;24.848;2022-09-13T14:22:23;99400.88;;;25.90;28.20
41947;BME280;27638;42.184;24.848;2022-09-13T14:27:16;99400.09;;;26.15;29.32
41947;BME280;27638;42.184;24.848;2022-09-13T14:29:45;99400.63;;;26.02;29.86
41947;BME280;27638;42.184;24.848;2022-09-13T14:32:12;99397.66;;;26.08;28.80
41947;BME280;27638;42.184;24.848;2022-09-13T14:34:48;99401.72;;;26.16;28.43
41947;BME280;27638;42.184;24.848;2022-09-13T14:37:18;99408.78;;;26.17;28.86
41947;BME280;27638;42.184;24.848;2022-09-13T14:39:52;99402.81;;;26.35;28.57
41947;BME280;27638;42.184;24.848;2022-09-13T14:42:18;99410.38;;;26.28;28.64
41947;BME280;27638;42.184;24.848;2022-09-13T14:44:44;99412.03;;;26.24;28.34
41947;BME280;27638;42.184;24.848;2022-09-13T14:47:27;99406.88;;;26.28;29.24
41947;BME280;27638;42.184;24.848;2022-09-13T14:50:03;99404.16;;;26.13;28.39
41947;BME280;27638;42.184;24.848;2022-09-13T14:52:31;99409.59;;;26.23;28.83
41947;BME280;27638;42.184;24.848;2022-09-13T14:55:00;99403.59;;;26.31;28.22
41947;BME280;27638;42.184;24.848;2022-09-13T14:57:29;99410.13;;;26.45;27.87
41947;BME280;27638;42.184;24.848;2022-09-13T14:59:59;99409.56;;;26.28;27.15
41947;BME280;27638;42.184;24.848;2022-09-13T15:02:26;99409.03;;;26.21;26.93
41947;BME280;27638;42.184;24.848;2022-09-13T15:04:54;99414.19;;;26.17;26.69
41947;BME280;27638;42.184;24.848;2022-09-13T15:07:33;99407.13;;;26.21;26.80
41947;BME280;27638;42.184;24.848;2022-09-13T15:10:18;99412.84;;;26.04;27.32
41947;BME280;27638;42.184;24.848;2022-09-13T15:13:07;99406.56;;;25.94;27.54
41947;BME280;27638;42.184;24.848;2022-09-13T15:15:36;99410.91;;;25.90;27.43
41947;BME280;27638;42.184;24.848;2022-09-13T15:18:03;99409.84;;;25.96;27.46
41947;BME280;27638;42.184;24.848;2022-09-13T15:20:43;99409.28;;;25.84;27.69
41947;BME280;27638;42.184;24.848;2022-09-13T15:23:12;99411.16;;;25.73;27.96
41947;BME280;27638;42.184;24.848;2022-09-13T15:25:38;99403.31;;;25.82;27.65
41947;BME280;27638;42.184;24.848;2022-09-13T15:28:03;99410.41;;;26.13;27.59
41947;BME280;27638;42.184;24.848;2022-09-13T15:30:29;99410.69;;;26.01;26.81
41947;BME280;27638;42.184;24.848;2022-09-13T15:35:37;99413.91;;;25.93;27.36
41947;BME280;27638;42.184;24.848;2022-09-13T15:38:17;99410.06;;;25.69;28.03
41947;BME280;27638;42.184;24.848;2022-09-13T15:40:46;99411.50;;;26.02;27.86
41947;BME280;27638;42.184;24.848;2022-09-13T15:43:12;99416.66;;;26.03;27.58
41947;BME280;27638;42.184;24.848;2022-09-13T15:45:37;99419.63;;;26.27;27.38
41947;BME280;27638;42.184;24.848;2022-09-13T15:48:03;99421.53;;;26.17;27.53
41947;BME280;27638;42.184;24.848;2022-09-13T15:50:29;99423.41;;;26.31;27.98
41947;BME280;27638;42.184;24.848;2022-09-13T15:52:56;99427.25;;;26.40;27.46
41947;BME280;27638;42.184;24.848;2022-09-13T15:55:22;99433.75;;;26.24;28.15
41947;BME280;27638;42.184;24.848;2022-09-13T15:57:48;99421.00;;;26.35;28.43
41947;BME280;27638;42.184;24.848;2022-09-13T16:00:21;99426.94;;;26.27;28.57
41947;BME280;27638;42.184;24.848;2022-09-13T16:02:46;99436.75;;;26.33;28.27
41947;BME280;27638;42.184;24.848;2022-09-13T16:05:12;99437.56;;;26.33;28.66
41947;BME280;27638;42.184;24.848;2022-09-13T16:07:38;99438.06;;;26.30;29.15
41947;BME280;27638;42.184;24.848;2022-09-13T16:10:25;99435.38;;;26.20;29.67
41947;BME280;27638;42.184;24.848;2022-09-13T16:12:49;99435.09;;;26.12;29.28